sensor_id;sensor_type;location;lat;lon;timestamp;P1;durP1;ratioP1;P2;durP2;ratioP2
34102;SDS011;20381;54.498;18.206;2022-07-29T00:01:34;4.47;;;2.98;;
34102;SDS011;20381;54.498;18.206;2022-07-29T00:04:01;5.90;;;3.57;;
34102;SDS011;20381;54.498;18.206;2022-07-29T00:06:28;7.23;;;3.57;;
34102;SDS011;20381;54.498;18.206;2022-07-29T00:08:54;5.97;;;3.55;;
34102;SDS011;20381;54.498;18.206;2022-07-29T00:11:21;6.08;;;3.50;;
34102;SDS011;20381;54.498;18.206;2022-07-29T00:13:48;3.98;;;2.72;;
34102;SDS011;20381;54.498;18.206;2022-07-29T00:16:14;6.17;;;2.65;;
34102;SDS011;20381;54.498;18.206;2022-07-29T00:18:41;5.63;;;2.90;;
34102;SDS011;20381;54.498;18.206;2022-07-29T00:21:08;5.97;;;3.15;;
34102;SDS011;20381;54.498;18.206;2022-07-29T00:23:35;8.80;;;4.00;;
34102;SDS011;20381;54.498;18.206;2022-07-29T00:26:02;7.92;;;3.50;;
34102;SDS011;20381;54.498;18.206;2022-07-29T00:28:28;5.27;;;3.13;;
34102;SDS011;20381;54.498;18.206;2022-07-29T00:30:55;5.60;;;2.63;;
34102;SDS011;20381;54.498;18.206;2022-07-29T00:33:22;6.50;;;2.80;;
34102;SDS011;20381;54.498;18.206;2022-07-29T00:35:49;6.57;;;2.83;;
34102;SDS011;20381;54.498;18.206;2022-07-29T00:38:16;6.17;;;3.20;;
34102;SDS011;20381;54.498;18.206;2022-07-29T00:40:45;9.15;;;4.40;;
34102;SDS011;20381;54.498;18.206;2022-07-29T00:43:13;7.72;;;3.30;;
34102;SDS011;20381;54.498;18.206;2022-07-29T00:45:41;5.92;;;3.65;;
34102;SDS011;20381;54.498;18.206;2022-07-29T00:48:08;5.22;;;2.50;;
34102;SDS011;20381;54.498;18.206;2022-07-29T00:50:35;7.28;;;4.37;;
34102;SDS011;20381;54.498;18.206;2022-07-29T00:53:03;11.90;;;4.83;;
34102;SDS011;20381;54.498;18.206;2022-07-29T00:55:32;12.58;;;5.20;;
34102;SDS011;20381;54.498;18.206;2022-07-29T00:57:59;10.65;;;5.42;;
34102;SDS011;20381;54.498;18.206;2022-07-29T01:00:26;9.73;;;4.83;;
34102;SDS011;20381;54.498;18.206;2022-07-29T01:02:55;13.00;;;4.95;;
34102;SDS011;20381;54.498;18.206;2022-07-29T01:05:23;8.33;;;3.63;;
34102;SDS011;20381;54.498;18.206;2022-07-29T01:07:52;8.63;;;4.20;;
34102;SDS011;20381;54.498;18.206;2022-07-29T01:10:20;5.83;;;2.87;;
34102;SDS011;20381;54.498;18.206;2022-07-29T01:12:49;11.40;;;4.85;;
34102;SDS011;20381;54.498;18.206;2022-07-29T01:15:18;10.58;;;4.30;;
34102;SDS011;20381;54.498;18.206;2022-07-29T01:29:11;9.93;;;4.55;;
34102;SDS011;20381;54.498;18.206;2022-07-29T01:31:42;8.03;;;4.42;;
34102;SDS011;20381;54.498;18.206;2022-07-29T01:39:49;9.77;;;4.30;;
34102;SDS011;20381;54.498;18.206;2022-07-29T01:44:55;4.12;;;2.60;;
34102;SDS011;20381;54.498;18.206;2022-07-29T01:50:37;9.00;;;3.52;;
34102;SDS011;20381;54.498;18.206;2022-07-29T01:53:08;5.50;;;3.37;;
34102;SDS011;20381;54.498;18.206;2022-07-29T01:55:38;5.85;;;3.80;;
34102;SDS011;20381;54.498;18.206;2022-07-29T01:58:08;6.40;;;3.22;;
34102;SDS011;20381;54.498;18.206;2022-07-29T02:00:37;6.50;;;3.10;;
34102;SDS011;20381;54.498;18.206;2022-07-29T02:03:07;6.05;;;2.70;;
34102;SDS011;20381;54.498;18.206;2022-07-29T02:05:37;7.45;;;3.95;;
34102;SDS011;20381;54.498;18.206;2022-07-29T02:08:07;7.83;;;3.92;;
34102;SDS011;20381;54.498;18.206;2022-07-29T02:10:35;8.13;;;3.02;;
34102;SDS011;20381;54.498;18.206;2022-07-29T02:13:05;9.88;;;3.70;;
34102;SDS011;20381;54.498;18.206;2022-07-29T02:15:35;9.93;;;3.72;;
34102;SDS011;20381;54.498;18.206;2022-07-29T02:18:08;6.50;;;3.08;;
34102;SDS011;20381;54.498;18.206;2022-07-29T02:20:49;17.77;;;6.62;;
34102;SDS011;20381;54.498;18.206;2022-07-29T02:23:20;10.60;;;6.28;;
34102;SDS011;20381;54.498;18.206;2022-07-29T02:25:49;14.10;;;5.90;;
34102;SDS011;20381;54.498;18.206;2022-07-29T02:28:20;9.75;;;5.17;;
34102;SDS011;20381;54.498;18.206;2022-07-29T02:30:53;12.10;;;5.58;;
34102;SDS011;20381;54.498;18.206;2022-07-29T02:33:26;15.43;;;4.95;;
34102;SDS011;20381;54.498;18.206;2022-07-29T02:38:20;11.57;;;4.80;;
34102;SDS011;20381;54.498;18.206;2022-07-29T02:41:09;13.88;;;5.25;;
34102;SDS011;20381;54.498;18.206;2022-07-29T02:43:39;12.50;;;4.50;;
34102;SDS011;20381;54.498;18.206;2022-07-29T02:46:11;10.48;;;4.40;;
34102;SDS011;20381;54.498;18.206;2022-07-29T02:48:51;13.32;;;5.03;;
34102;SDS011;20381;54.498;18.206;2022-07-29T02:51:19;11.78;;;3.55;;
34102;SDS011;20381;54.498;18.206;2022-07-29T02:53:53;9.08;;;4.53;;
34102;SDS011;20381;54.498;18.206;2022-07-29T02:56:23;6.85;;;4.05;;
34102;SDS011;20381;54.498;18.206;2022-07-29T02:58:54;10.63;;;3.00;;
34102;SDS011;20381;54.498;18.206;2022-07-29T03:01:24;9.28;;;3.75;;
34102;SDS011;20381;54.498;18.206;2022-07-29T03:03:54;8.70;;;4.20;;
34102;SDS011;20381;54.498;18.206;2022-07-29T03:06:23;10.05;;;3.75;;
34102;SDS011;20381;54.498;18.206;2022-07-29T03:08:52;6.10;;;3.30;;
34102;SDS011;20381;54.498;18.206;2022-07-29T03:11:21;8.00;;;3.80;;
34102;SDS011;20381;54.498;18.206;2022-07-29T03:13:48;7.58;;;3.08;;
34102;SDS011;20381;54.498;18.206;2022-07-29T03:16:16;4.62;;;2.80;;
34102;SDS011;20381;54.498;18.206;2022-07-29T03:18:45;9.20;;;3.55;;
34102;SDS011;20381;54.498;18.206;2022-07-29T03:21:13;9.65;;;3.52;;
34102;SDS011;20381;54.498;18.206;2022-07-29T03:23:43;10.37;;;3.70;;
34102;SDS011;20381;54.498;18.206;2022-07-29T03:26:12;7.78;;;3.67;;
34102;SDS011;20381;54.498;18.206;2022-07-29T03:28:39;7.08;;;3.05;;
34102;SDS011;20381;54.498;18.206;2022-07-29T03:31:05;5.20;;;2.85;;
34102;SDS011;20381;54.498;18.206;2022-07-29T03:33:32;10.33;;;3.80;;
34102;SDS011;20381;54.498;18.206;2022-07-29T03:35:59;7.27;;;3.30;;
34102;SDS011;20381;54.498;18.206;2022-07-29T03:38:27;5.47;;;2.90;;
34102;SDS011;20381;54.498;18.206;2022-07-29T03:40:57;9.15;;;3.60;;
34102;SDS011;20381;54.498;18.206;2022-07-29T03:43:28;9.75;;;3.35;;
34102;SDS011;20381;54.498;18.206;2022-07-29T03:45:58;8.90;;;3.70;;
34102;SDS011;20381;54.498;18.206;2022-07-29T03:48:28;10.10;;;3.75;;
34102;SDS011;20381;54.498;18.206;2022-07-29T03:50:58;7.08;;;3.22;;
34102;SDS011;20381;54.498;18.206;2022-07-29T03:53:25;20.72;;;4.33;;
34102;SDS011;20381;54.498;18.206;2022-07-29T03:55:54;13.25;;;4.00;;
34102;SDS011;20381;54.498;18.206;2022-07-29T03:58:26;18.87;;;5.42;;
34102;SDS011;20381;54.498;18.206;2022-07-29T04:00:53;28.70;;;5.10;;
34102;SDS011;20381;54.498;18.206;2022-07-29T04:03:21;15.75;;;4.45;;
34102;SDS011;20381;54.498;18.206;2022-07-29T04:08:30;7.58;;;3.65;;
34102;SDS011;20381;54.498;18.206;2022-07-29T04:10:59;8.88;;;3.87;;
34102;SDS011;20381;54.498;18.206;2022-07-29T04:13:26;6.78;;;3.10;;
34102;SDS011;20381;54.498;18.206;2022-07-29T04:15:53;13.58;;;3.55;;
34102;SDS011;20381;54.498;18.206;2022-07-29T04:20:50;12.95;;;3.55;;
34102;SDS011;20381;54.498;18.206;2022-07-29T04:23:17;15.43;;;3.70;;
34102;SDS011;20381;54.498;18.206;2022-07-29T04:25:44;12.75;;;3.77;;
34102;SDS011;20381;54.498;18.206;2022-07-29T04:28:10;10.55;;;3.20;;
34102;SDS011;20381;54.498;18.206;2022-07-29T04:30:37;7.97;;;2.92;;
34102;SDS011;20381;54.498;18.206;2022-07-29T04:33:05;7.28;;;3.22;;
34102;SDS011;20381;54.498;18.206;2022-07-29T04:35:34;8.73;;;2.95;;
34102;SDS011;20381;54.498;18.206;2022-07-29T04:38:03;5.65;;;2.65;;
34102;SDS011;20381;54.498;18.206;2022-07-29T04:40:31;4.60;;;2.52;;
34102;SDS011;20381;54.498;18.206;2022-07-29T04:42:59;7.33;;;3.02;;
34102;SDS011;20381;54.498;18.206;2022-07-29T04:45:26;11.22;;;4.15;;
34102;SDS011;20381;54.498;18.206;2022-07-29T04:47:54;9.35;;;3.10;;
34102;SDS011;20381;54.498;18.206;2022-07-29T04:50:21;7.50;;;3.27;;
34102;SDS011;20381;54.498;18.206;2022-07-29T04:52:48;7.72;;;3.08;;
34102;SDS011;20381;54.498;18.206;2022-07-29T04:55:15;12.23;;;2.98;;
34102;SDS011;20381;54.498;18.206;2022-07-29T04:57:41;7.95;;;3.00;;
34102;SDS011;20381;54.498;18.206;2022-07-29T05:00:08;6.60;;;3.17;;
34102;SDS011;20381;54.498;18.206;2022-07-29T05:02:36;4.72;;;2.92;;
34102;SDS011;20381;54.498;18.206;2022-07-29T05:05:03;5.70;;;2.72;;
34102;SDS011;20381;54.498;18.206;2022-07-29T05:07:31;11.10;;;4.25;;
34102;SDS011;20381;54.498;18.206;2022-07-29T05:09:57;7.28;;;2.67;;
34102;SDS011;20381;54.498;18.206;2022-07-29T05:12:24;9.38;;;3.72;;
34102;SDS011;20381;54.498;18.206;2022-07-29T05:14:51;10.28;;;4.95;;
34102;SDS011;20381;54.498;18.206;2022-07-29T05:17:18;9.05;;;4.22;;
34102;SDS011;20381;54.498;18.206;2022-07-29T05:19:45;13.32;;;4.30;;
34102;SDS011;20381;54.498;18.206;2022-07-29T05:22:14;9.13;;;4.25;;
34102;SDS011;20381;54.498;18.206;2022-07-29T05:24:41;11.18;;;4.83;;
34102;SDS011;20381;54.498;18.206;2022-07-29T05:27:07;13.38;;;5.30;;
34102;SDS011;20381;54.498;18.206;2022-07-29T05:29:35;15.45;;;5.58;;
34102;SDS011;20381;54.498;18.206;2022-07-29T05:32:02;8.95;;;4.50;;
34102;SDS011;20381;54.498;18.206;2022-07-29T05:34:29;7.05;;;3.62;;
34102;SDS011;20381;54.498;18.206;2022-07-29T05:39:24;8.68;;;3.50;;
34102;SDS011;20381;54.498;18.206;2022-07-29T05:44:17;7.97;;;2.60;;
34102;SDS011;20381;54.498;18.206;2022-07-29T05:46:44;14.70;;;3.60;;
34102;SDS011;20381;54.498;18.206;2022-07-29T05:49:10;5.75;;;3.50;;
34102;SDS011;20381;54.498;18.206;2022-07-29T05:56:30;6.50;;;2.12;;
34102;SDS011;20381;54.498;18.206;2022-07-29T05:58:57;3.65;;;1.55;;
34102;SDS011;20381;54.498;18.206;2022-07-29T06:01:26;4.22;;;1.12;;
34102;SDS011;20381;54.498;18.206;2022-07-29T06:03:53;2.87;;;1.22;;
34102;SDS011;20381;54.498;18.206;2022-07-29T06:06:19;4.05;;;1.35;;
34102;SDS011;20381;54.498;18.206;2022-07-29T06:08:46;3.70;;;0.85;;
34102;SDS011;20381;54.498;18.206;2022-07-29T06:11:13;5.78;;;0.90;;
34102;SDS011;20381;54.498;18.206;2022-07-29T06:13:40;2.80;;;1.10;;
34102;SDS011;20381;54.498;18.206;2022-07-29T06:16:06;1.50;;;0.80;;
34102;SDS011;20381;54.498;18.206;2022-07-29T06:18:33;1.05;;;0.60;;
34102;SDS011;20381;54.498;18.206;2022-07-29T06:21:01;3.85;;;1.05;;
34102;SDS011;20381;54.498;18.206;2022-07-29T06:23:31;2.15;;;0.70;;
34102;SDS011;20381;54.498;18.206;2022-07-29T06:25:58;2.40;;;0.90;;
34102;SDS011;20381;54.498;18.206;2022-07-29T06:28:25;3.27;;;1.02;;
34102;SDS011;20381;54.498;18.206;2022-07-29T06:30:51;3.15;;;1.00;;
34102;SDS011;20381;54.498;18.206;2022-07-29T06:33:19;3.95;;;1.10;;
34102;SDS011;20381;54.498;18.206;2022-07-29T06:35:45;6.03;;;0.93;;
34102;SDS011;20381;54.498;18.206;2022-07-29T06:38:13;5.37;;;1.07;;
34102;SDS011;20381;54.498;18.206;2022-07-29T06:40:41;3.65;;;0.95;;
34102;SDS011;20381;54.498;18.206;2022-07-29T06:43:32;5.53;;;0.75;;
34102;SDS011;20381;54.498;18.206;2022-07-29T06:46:07;1.65;;;0.78;;
34102;SDS011;20381;54.498;18.206;2022-07-29T06:48:37;1.90;;;1.02;;
34102;SDS011;20381;54.498;18.206;2022-07-29T06:51:06;2.33;;;0.80;;
34102;SDS011;20381;54.498;18.206;2022-07-29T06:53:33;1.57;;;0.53;;
34102;SDS011;20381;54.498;18.206;2022-07-29T06:56:02;1.40;;;0.40;;
34102;SDS011;20381;54.498;18.206;2022-07-29T06:58:29;1.90;;;1.07;;
34102;SDS011;20381;54.498;18.206;2022-07-29T07:00:57;2.02;;;0.60;;
34102;SDS011;20381;54.498;18.206;2022-07-29T07:03:26;3.62;;;0.90;;
34102;SDS011;20381;54.498;18.206;2022-07-29T07:05:53;2.12;;;0.60;;
34102;SDS011;20381;54.498;18.206;2022-07-29T07:08:20;1.50;;;0.60;;
34102;SDS011;20381;54.498;18.206;2022-07-29T07:10:49;2.40;;;0.60;;
34102;SDS011;20381;54.498;18.206;2022-07-29T07:13:17;0.95;;;0.60;;
34102;SDS011;20381;54.498;18.206;2022-07-29T07:15:45;1.90;;;0.65;;
34102;SDS011;20381;54.498;18.206;2022-07-29T07:18:14;2.25;;;0.70;;
34102;SDS011;20381;54.498;18.206;2022-07-29T07:20:42;2.40;;;1.00;;
34102;SDS011;20381;54.498;18.206;2022-07-29T07:23:10;3.90;;;0.70;;
34102;SDS011;20381;54.498;18.206;2022-07-29T07:25:37;2.30;;;0.70;;
34102;SDS011;20381;54.498;18.206;2022-07-29T07:30:30;4.45;;;1.10;;
34102;SDS011;20381;54.498;18.206;2022-07-29T07:32:57;3.47;;;0.93;;
34102;SDS011;20381;54.498;18.206;2022-07-29T07:35:23;3.20;;;1.00;;
34102;SDS011;20381;54.498;18.206;2022-07-29T07:37:53;4.03;;;0.70;;
34102;SDS011;20381;54.498;18.206;2022-07-29T07:40:21;5.75;;;1.40;;
34102;SDS011;20381;54.498;18.206;2022-07-29T07:42:50;1.30;;;0.78;;
34102;SDS011;20381;54.498;18.206;2022-07-29T07:45:17;1.05;;;0.70;;
34102;SDS011;20381;54.498;18.206;2022-07-29T07:47:45;3.72;;;0.93;;
34102;SDS011;20381;54.498;18.206;2022-07-29T07:50:14;5.97;;;0.72;;
34102;SDS011;20381;54.498;18.206;2022-07-29T07:52:48;2.37;;;0.85;;
34102;SDS011;20381;54.498;18.206;2022-07-29T07:55:22;3.30;;;0.65;;
34102;SDS011;20381;54.498;18.206;2022-07-29T08:00:15;1.85;;;0.60;;
34102;SDS011;20381;54.498;18.206;2022-07-29T08:02:43;1.25;;;0.60;;
34102;SDS011;20381;54.498;18.206;2022-07-29T08:05:16;2.12;;;0.60;;
34102;SDS011;20381;54.498;18.206;2022-07-29T08:07:49;2.52;;;0.78;;
34102;SDS011;20381;54.498;18.206;2022-07-29T08:10:17;4.90;;;0.82;;
34102;SDS011;20381;54.498;18.206;2022-07-29T08:13:06;2.35;;;0.75;;
34102;SDS011;20381;54.498;18.206;2022-07-29T08:15:34;3.10;;;0.57;;
34102;SDS011;20381;54.498;18.206;2022-07-29T08:18:01;1.00;;;0.70;;
34102;SDS011;20381;54.498;18.206;2022-07-29T08:20:28;2.60;;;0.65;;
34102;SDS011;20381;54.498;18.206;2022-07-29T08:22:55;1.60;;;0.60;;
34102;SDS011;20381;54.498;18.206;2022-07-29T08:25:22;0.68;;;0.57;;
34102;SDS011;20381;54.498;18.206;2022-07-29T08:27:49;10.82;;;1.20;;
34102;SDS011;20381;54.498;18.206;2022-07-29T08:32:42;3.02;;;0.47;;
34102;SDS011;20381;54.498;18.206;2022-07-29T08:35:10;3.45;;;0.88;;
34102;SDS011;20381;54.498;18.206;2022-07-29T08:37:37;2.12;;;0.62;;
34102;SDS011;20381;54.498;18.206;2022-07-29T08:40:04;7.85;;;1.10;;
34102;SDS011;20381;54.498;18.206;2022-07-29T08:42:31;1.02;;;0.60;;
34102;SDS011;20381;54.498;18.206;2022-07-29T08:44:58;1.55;;;0.62;;
34102;SDS011;20381;54.498;18.206;2022-07-29T08:49:53;6.10;;;0.88;;
34102;SDS011;20381;54.498;18.206;2022-07-29T08:52:24;2.65;;;0.70;;
34102;SDS011;20381;54.498;18.206;2022-07-29T08:54:52;4.03;;;0.70;;
34102;SDS011;20381;54.498;18.206;2022-07-29T08:57:20;3.00;;;0.68;;
34102;SDS011;20381;54.498;18.206;2022-07-29T08:59:48;2.72;;;0.68;;
34102;SDS011;20381;54.498;18.206;2022-07-29T09:02:19;4.20;;;0.60;;
34102;SDS011;20381;54.498;18.206;2022-07-29T09:04:48;1.45;;;0.68;;
34102;SDS011;20381;54.498;18.206;2022-07-29T09:07:16;1.90;;;0.60;;
34102;SDS011;20381;54.498;18.206;2022-07-29T09:09:44;1.60;;;0.60;;
34102;SDS011;20381;54.498;18.206;2022-07-29T09:12:11;5.05;;;0.98;;
34102;SDS011;20381;54.498;18.206;2022-07-29T09:14:42;8.35;;;1.85;;
34102;SDS011;20381;54.498;18.206;2022-07-29T09:17:10;3.10;;;1.25;;
34102;SDS011;20381;54.498;18.206;2022-07-29T09:19:36;4.15;;;0.90;;
34102;SDS011;20381;54.498;18.206;2022-07-29T09:22:04;6.67;;;1.00;;
34102;SDS011;20381;54.498;18.206;2022-07-29T09:24:45;1.42;;;0.80;;
34102;SDS011;20381;54.498;18.206;2022-07-29T09:30:02;2.98;;;0.90;;
34102;SDS011;20381;54.498;18.206;2022-07-29T09:32:32;3.95;;;0.90;;
34102;SDS011;20381;54.498;18.206;2022-07-29T09:35:19;3.02;;;0.50;;
34102;SDS011;20381;54.498;18.206;2022-07-29T09:37:48;2.40;;;0.80;;
34102;SDS011;20381;54.498;18.206;2022-07-29T09:40:19;3.40;;;1.00;;
34102;SDS011;20381;54.498;18.206;2022-07-29T09:42:49;3.83;;;0.72;;
34102;SDS011;20381;54.498;18.206;2022-07-29T09:45:26;5.37;;;0.85;;
34102;SDS011;20381;54.498;18.206;2022-07-29T09:47:55;3.40;;;0.62;;
34102;SDS011;20381;54.498;18.206;2022-07-29T09:50:38;3.25;;;0.50;;
34102;SDS011;20381;54.498;18.206;2022-07-29T09:53:06;1.35;;;0.53;;
34102;SDS011;20381;54.498;18.206;2022-07-29T09:55:51;1.30;;;0.57;;
34102;SDS011;20381;54.498;18.206;2022-07-29T09:58:18;3.52;;;0.60;;
34102;SDS011;20381;54.498;18.206;2022-07-29T10:00:47;1.60;;;0.60;;
34102;SDS011;20381;54.498;18.206;2022-07-29T10:03:18;3.05;;;0.68;;
34102;SDS011;20381;54.498;18.206;2022-07-29T10:05:45;2.20;;;0.70;;
34102;SDS011;20381;54.498;18.206;2022-07-29T10:08:24;1.30;;;0.50;;
34102;SDS011;20381;54.498;18.206;2022-07-29T10:10:47;3.50;;;0.60;;
34102;SDS011;20381;54.498;18.206;2022-07-29T10:13:14;1.47;;;0.50;;
34102;SDS011;20381;54.498;18.206;2022-07-29T10:15:44;1.22;;;0.40;;
34102;SDS011;20381;54.498;18.206;2022-07-29T10:18:12;3.02;;;0.50;;
34102;SDS011;20381;54.498;18.206;2022-07-29T10:20:45;3.80;;;0.60;;
34102;SDS011;20381;54.498;18.206;2022-07-29T10:23:13;4.58;;;0.42;;
34102;SDS011;20381;54.498;18.206;2022-07-29T10:25:41;1.80;;;0.40;;
34102;SDS011;20381;54.498;18.206;2022-07-29T10:28:07;2.95;;;0.53;;
34102;SDS011;20381;54.498;18.206;2022-07-29T10:30:35;1.60;;;0.62;;
34102;SDS011;20381;54.498;18.206;2022-07-29T10:33:10;1.87;;;0.80;;
34102;SDS011;20381;54.498;18.206;2022-07-29T10:36:00;0.65;;;0.30;;
34102;SDS011;20381;54.498;18.206;2022-07-29T10:44:49;2.47;;;0.45;;
34102;SDS011;20381;54.498;18.206;2022-07-29T10:47:24;2.47;;;0.60;;
34102;SDS011;20381;54.498;18.206;2022-07-29T10:49:58;1.55;;;0.47;;
34102;SDS011;20381;54.498;18.206;2022-07-29T10:55:32;0.47;;;0.33;;
34102;SDS011;20381;54.498;18.206;2022-07-29T10:58:14;0.45;;;0.30;;
34102;SDS011;20381;54.498;18.206;2022-07-29T11:00:50;0.30;;;0.20;;
34102;SDS011;20381;54.498;18.206;2022-07-29T11:06:14;1.12;;;0.30;;
34102;SDS011;20381;54.498;18.206;2022-07-29T11:08:43;1.02;;;0.30;;
34102;SDS011;20381;54.498;18.206;2022-07-29T11:13:56;1.47;;;0.33;;
34102;SDS011;20381;54.498;18.206;2022-07-29T11:16:23;1.10;;;0.20;;
34102;SDS011;20381;54.498;18.206;2022-07-29T11:21:44;0.30;;;0.20;;
34102;SDS011;20381;54.498;18.206;2022-07-29T11:29:53;1.10;;;0.30;;
34102;SDS011;20381;54.498;18.206;2022-07-29T11:32:23;1.27;;;0.20;;
34102;SDS011;20381;54.498;18.206;2022-07-29T11:35:13;0.88;;;0.23;;
34102;SDS011;20381;54.498;18.206;2022-07-29T11:37:39;0.10;;;0.10;;
34102;SDS011;20381;54.498;18.206;2022-07-29T11:45:07;1.85;;;0.30;;
34102;SDS011;20381;54.498;18.206;2022-07-29T11:47:41;0.42;;;0.30;;
34102;SDS011;20381;54.498;18.206;2022-07-29T11:50:32;0.50;;;0.30;;
34102;SDS011;20381;54.498;18.206;2022-07-29T11:52:59;0.90;;;0.47;;
34102;SDS011;20381;54.498;18.206;2022-07-29T11:55:28;0.85;;;0.40;;
34102;SDS011;20381;54.498;18.206;2022-07-29T11:57:57;1.52;;;0.40;;
34102;SDS011;20381;54.498;18.206;2022-07-29T12:00:27;0.30;;;0.30;;
34102;SDS011;20381;54.498;18.206;2022-07-29T12:03:02;0.45;;;0.25;;
34102;SDS011;20381;54.498;18.206;2022-07-29T12:05:42;1.00;;;0.33;;
34102;SDS011;20381;54.498;18.206;2022-07-29T12:08:09;0.47;;;0.20;;
34102;SDS011;20381;54.498;18.206;2022-07-29T12:10:46;0.62;;;0.33;;
34102;SDS011;20381;54.498;18.206;2022-07-29T12:13:14;1.45;;;0.40;;
34102;SDS011;20381;54.498;18.206;2022-07-29T12:15:51;0.23;;;0.20;;
34102;SDS011;20381;54.498;18.206;2022-07-29T12:18:19;1.10;;;0.30;;
34102;SDS011;20381;54.498;18.206;2022-07-29T12:20:47;0.25;;;0.25;;
34102;SDS011;20381;54.498;18.206;2022-07-29T12:25:42;0.68;;;0.30;;
34102;SDS011;20381;54.498;18.206;2022-07-29T12:28:14;9.35;;;0.80;;
34102;SDS011;20381;54.498;18.206;2022-07-29T12:30:43;2.92;;;0.30;;
34102;SDS011;20381;54.498;18.206;2022-07-29T12:33:13;0.37;;;0.25;;
34102;SDS011;20381;54.498;18.206;2022-07-29T12:35:47;0.82;;;0.30;;
34102;SDS011;20381;54.498;18.206;2022-07-29T12:38:23;0.60;;;0.40;;
34102;SDS011;20381;54.498;18.206;2022-07-29T12:40:51;1.00;;;0.30;;
34102;SDS011;20381;54.498;18.206;2022-07-29T12:43:23;0.62;;;0.30;;
34102;SDS011;20381;54.498;18.206;2022-07-29T12:45:55;0.80;;;0.20;;
34102;SDS011;20381;54.498;18.206;2022-07-29T12:48:36;0.93;;;0.20;;
34102;SDS011;20381;54.498;18.206;2022-07-29T12:51:05;0.50;;;0.37;;
34102;SDS011;20381;54.498;18.206;2022-07-29T12:53:34;0.70;;;0.25;;
34102;SDS011;20381;54.498;18.206;2022-07-29T12:56:03;1.05;;;0.20;;
34102;SDS011;20381;54.498;18.206;2022-07-29T12:58:34;0.70;;;0.33;;
34102;SDS011;20381;54.498;18.206;2022-07-29T13:03:45;1.75;;;0.53;;
34102;SDS011;20381;54.498;18.206;2022-07-29T13:09:17;0.53;;;0.20;;
34102;SDS011;20381;54.498;18.206;2022-07-29T13:11:51;2.02;;;0.37;;
34102;SDS011;20381;54.498;18.206;2022-07-29T13:14:34;0.55;;;0.30;;
34102;SDS011;20381;54.498;18.206;2022-07-29T13:17:12;3.08;;;0.50;;
34102;SDS011;20381;54.498;18.206;2022-07-29T13:19:41;0.45;;;0.30;;
34102;SDS011;20381;54.498;18.206;2022-07-29T13:22:11;0.33;;;0.30;;
34102;SDS011;20381;54.498;18.206;2022-07-29T13:24:50;2.27;;;0.40;;
34102;SDS011;20381;54.498;18.206;2022-07-29T13:27:23;0.80;;;0.40;;
34102;SDS011;20381;54.498;18.206;2022-07-29T13:29:55;0.68;;;0.37;;
34102;SDS011;20381;54.498;18.206;2022-07-29T13:32:24;1.10;;;0.30;;
34102;SDS011;20381;54.498;18.206;2022-07-29T13:34:53;0.35;;;0.25;;
34102;SDS011;20381;54.498;18.206;2022-07-29T13:37:29;0.95;;;0.35;;
34102;SDS011;20381;54.498;18.206;2022-07-29T13:39:56;0.68;;;0.20;;
34102;SDS011;20381;54.498;18.206;2022-07-29T13:42:24;0.25;;;0.25;;
34102;SDS011;20381;54.498;18.206;2022-07-29T13:44:52;0.30;;;0.30;;
34102;SDS011;20381;54.498;18.206;2022-07-29T13:47:19;0.20;;;0.20;;
34102;SDS011;20381;54.498;18.206;2022-07-29T13:49:47;1.17;;;0.40;;
34102;SDS011;20381;54.498;18.206;2022-07-29T13:52:14;1.75;;;0.30;;
34102;SDS011;20381;54.498;18.206;2022-07-29T13:54:42;1.67;;;0.30;;
34102;SDS011;20381;54.498;18.206;2022-07-29T13:59:38;1.30;;;0.30;;
34102;SDS011;20381;54.498;18.206;2022-07-29T14:02:06;0.82;;;0.30;;
34102;SDS011;20381;54.498;18.206;2022-07-29T14:04:34;0.30;;;0.25;;
34102;SDS011;20381;54.498;18.206;2022-07-29T14:07:02;0.42;;;0.30;;
34102;SDS011;20381;54.498;18.206;2022-07-29T14:09:29;1.57;;;0.30;;
34102;SDS011;20381;54.498;18.206;2022-07-29T14:11:56;0.28;;;0.28;;
34102;SDS011;20381;54.498;18.206;2022-07-29T14:14:24;0.33;;;0.20;;
34102;SDS011;20381;54.498;18.206;2022-07-29T14:16:50;2.08;;;0.80;;
34102;SDS011;20381;54.498;18.206;2022-07-29T14:19:17;0.37;;;0.30;;
34102;SDS011;20381;54.498;18.206;2022-07-29T14:21:44;2.45;;;0.47;;
34102;SDS011;20381;54.498;18.206;2022-07-29T14:24:11;0.57;;;0.40;;
34102;SDS011;20381;54.498;18.206;2022-07-29T14:26:38;0.20;;;0.20;;
34102;SDS011;20381;54.498;18.206;2022-07-29T14:29:04;2.52;;;0.30;;
34102;SDS011;20381;54.498;18.206;2022-07-29T14:31:32;0.62;;;0.30;;
34102;SDS011;20381;54.498;18.206;2022-07-29T14:33:59;1.65;;;0.35;;
34102;SDS011;20381;54.498;18.206;2022-07-29T14:36:26;0.50;;;0.33;;
34102;SDS011;20381;54.498;18.206;2022-07-29T14:38:53;2.95;;;0.30;;
34102;SDS011;20381;54.498;18.206;2022-07-29T14:41:19;0.60;;;0.30;;
34102;SDS011;20381;54.498;18.206;2022-07-29T14:43:47;0.55;;;0.30;;
34102;SDS011;20381;54.498;18.206;2022-07-29T14:46:13;0.50;;;0.30;;
34102;SDS011;20381;54.498;18.206;2022-07-29T14:48:42;1.20;;;0.30;;
34102;SDS011;20381;54.498;18.206;2022-07-29T14:51:09;1.75;;;0.40;;
34102;SDS011;20381;54.498;18.206;2022-07-29T14:53:37;4.10;;;0.70;;
34102;SDS011;20381;54.498;18.206;2022-07-29T14:56:06;0.55;;;0.30;;
34102;SDS011;20381;54.498;18.206;2022-07-29T14:58:33;0.72;;;0.50;;
34102;SDS011;20381;54.498;18.206;2022-07-29T15:01:00;0.35;;;0.30;;
34102;SDS011;20381;54.498;18.206;2022-07-29T15:03:27;0.60;;;0.33;;
34102;SDS011;20381;54.498;18.206;2022-07-29T15:05:54;0.40;;;0.28;;
34102;SDS011;20381;54.498;18.206;2022-07-29T15:08:22;0.80;;;0.20;;
34102;SDS011;20381;54.498;18.206;2022-07-29T15:10:50;0.30;;;0.25;;
34102;SDS011;20381;54.498;18.206;2022-07-29T15:13:17;0.57;;;0.40;;
34102;SDS011;20381;54.498;18.206;2022-07-29T15:15:44;1.75;;;0.30;;
34102;SDS011;20381;54.498;18.206;2022-07-29T15:18:13;1.67;;;0.30;;
34102;SDS011;20381;54.498;18.206;2022-07-29T15:20:45;0.70;;;0.35;;
34102;SDS011;20381;54.498;18.206;2022-07-29T15:23:12;1.52;;;0.40;;
34102;SDS011;20381;54.498;18.206;2022-07-29T15:25:39;0.93;;;0.40;;
34102;SDS011;20381;54.498;18.206;2022-07-29T15:28:06;1.45;;;0.33;;
34102;SDS011;20381;54.498;18.206;2022-07-29T15:30:33;35.55;;;1.87;;
34102;SDS011;20381;54.498;18.206;2022-07-29T15:33:02;0.78;;;0.40;;
34102;SDS011;20381;54.498;18.206;2022-07-29T15:35:29;0.68;;;0.37;;
34102;SDS011;20381;54.498;18.206;2022-07-29T15:37:56;0.60;;;0.40;;
34102;SDS011;20381;54.498;18.206;2022-07-29T15:40:23;0.23;;;0.23;;
34102;SDS011;20381;54.498;18.206;2022-07-29T15:42:50;0.68;;;0.40;;
34102;SDS011;20381;54.498;18.206;2022-07-29T15:45:17;1.20;;;0.40;;
34102;SDS011;20381;54.498;18.206;2022-07-29T15:47:44;1.80;;;0.60;;
34102;SDS011;20381;54.498;18.206;2022-07-29T15:50:11;0.30;;;0.28;;
34102;SDS011;20381;54.498;18.206;2022-07-29T15:52:39;0.30;;;0.30;;
34102;SDS011;20381;54.498;18.206;2022-07-29T15:55:09;0.82;;;0.47;;
34102;SDS011;20381;54.498;18.206;2022-07-29T15:57:35;7.17;;;0.47;;
34102;SDS011;20381;54.498;18.206;2022-07-29T16:00:03;3.12;;;0.40;;
34102;SDS011;20381;54.498;18.206;2022-07-29T16:02:31;1.72;;;0.35;;
34102;SDS011;20381;54.498;18.206;2022-07-29T16:04:58;0.78;;;0.30;;
34102;SDS011;20381;54.498;18.206;2022-07-29T16:07:25;0.90;;;0.25;;
34102;SDS011;20381;54.498;18.206;2022-07-29T16:09:52;0.65;;;0.40;;
34102;SDS011;20381;54.498;18.206;2022-07-29T16:12:19;2.58;;;0.50;;
34102;SDS011;20381;54.498;18.206;2022-07-29T16:14:47;1.77;;;0.47;;
34102;SDS011;20381;54.498;18.206;2022-07-29T16:17:15;1.85;;;0.70;;